LNK063N FXMM-FAOR
Flight info
| Callsign | LNK063N |
|---|---|
| Flight time | 0h 51m |
| Altitude | 35000 |
| Route | NEVEN/N0412F340 DCT NIBEX NIBEX1B |
| Aircraft | E190/M-SDE3GILORVW/S |
Departure
| Time | 2026-04-24 14:34 |
|---|---|
| Airport | Moshoeshoe I International Airport (FXMM) |
Arrival
| Time | 2026-04-24 15:26 |
|---|---|
| Airport | O.R. Tambo International Airport (FAOR) |
| Time | Latitude | Longitude | Altitude | Speed | Heading |
|---|---|---|---|---|---|
| 2026-04-24 14:06 | -29.45519 | 27.55842 | 5321 ft | 0 kts | 105° |
| 2026-04-24 14:25 | -29.45519 | 27.55840 | 5305 ft | 2 kts | 106° |
| 2026-04-24 14:25 | -29.45509 | 27.55825 | 5301 ft | 4 kts | 186° |
| 2026-04-24 14:26 | -29.45483 | 27.55832 | 5299 ft | 3 kts | 197° |
| 2026-04-24 14:26 | -29.45480 | 27.55833 | 5299 ft | 0 kts | 197° |
| 2026-04-24 14:29 | -29.45487 | 27.55830 | 5301 ft | 4 kts | 197° |
| 2026-04-24 14:30 | -29.45514 | 27.55821 | 5300 ft | 7 kts | 197° |
| 2026-04-24 14:30 | -29.45556 | 27.55776 | 5305 ft | 6 kts | 263° |
| 2026-04-24 14:30 | -29.45545 | 27.55726 | 5305 ft | 7 kts | 287° |
| 2026-04-24 14:30 | -29.45532 | 27.55672 | 5303 ft | 8 kts | 284° |
| 2026-04-24 14:31 | -29.45516 | 27.55596 | 5305 ft | 12 kts | 284° |
| 2026-04-24 14:31 | -29.45506 | 27.55497 | 5302 ft | 12 kts | 250° |
| 2026-04-24 14:31 | -29.45574 | 27.55454 | 5305 ft | 14 kts | 193° |
| 2026-04-24 14:31 | -29.45697 | 27.55416 | 5306 ft | 22 kts | 195° |
| 2026-04-24 14:32 | -29.45878 | 27.55360 | 5304 ft | 31 kts | 195° |
| 2026-04-24 14:32 | -29.46108 | 27.55292 | 5302 ft | 38 kts | 194° |
| 2026-04-24 14:32 | -29.46382 | 27.55206 | 5302 ft | 42 kts | 195° |
| 2026-04-24 14:32 | -29.46660 | 27.55126 | 5305 ft | 38 kts | 194° |
| 2026-04-24 14:33 | -29.46845 | 27.55040 | 5306 ft | 15 kts | 202° |
| 2026-04-24 14:33 | -29.46917 | 27.55014 | 5305 ft | 5 kts | 178° |
| 2026-04-24 14:33 | -29.46915 | 27.55040 | 5306 ft | 5 kts | 41° |
| 2026-04-24 14:33 | -29.46780 | 27.55082 | 5306 ft | 50 kts | 15° |
| 2026-04-24 14:34 | -29.46209 | 27.55259 | 5304 ft | 118 kts | 15° |
| 2026-04-24 14:34 | -29.45260 | 27.55555 | 5487 ft | 156 kts | 15° |
| 2026-04-24 14:34 | -29.44190 | 27.55862 | 6292 ft | 161 kts | 14° |
| 2026-04-24 14:34 | -29.43052 | 27.56156 | 6852 ft | 178 kts | 12° |
| 2026-04-24 14:35 | -29.41794 | 27.56463 | 7384 ft | 191 kts | 11° |
| 2026-04-24 14:35 | -29.40426 | 27.56799 | 7831 ft | 210 kts | 11° |
| 2026-04-24 14:35 | -29.38909 | 27.57159 | 8092 ft | 241 kts | 10° |
| 2026-04-24 14:35 | -29.37222 | 27.57555 | 8795 ft | 253 kts | 10° |
| 2026-04-24 14:36 | -29.35390 | 27.57986 | 9186 ft | 285 kts | 10° |
| 2026-04-24 14:36 | -29.33428 | 27.58455 | 10157 ft | 291 kts | 10° |
| 2026-04-24 14:36 | -29.31377 | 27.58959 | 10734 ft | 312 kts | 10° |
| 2026-04-24 14:36 | -29.29223 | 27.59508 | 11570 ft | 320 kts | 11° |
| 2026-04-24 14:37 | -29.27060 | 27.60145 | 12639 ft | 322 kts | 13° |
| 2026-04-24 14:37 | -29.24921 | 27.60799 | 13751 ft | 324 kts | 12° |
| 2026-04-24 14:37 | -29.22713 | 27.61410 | 14814 ft | 328 kts | 10° |
| 2026-04-24 14:37 | -29.20465 | 27.61973 | 15774 ft | 334 kts | 9° |
| 2026-04-24 14:38 | -29.18173 | 27.62527 | 16692 ft | 340 kts | 9° |
| 2026-04-24 14:38 | -29.15833 | 27.63102 | 17607 ft | 346 kts | 9° |
| 2026-04-24 14:38 | -29.13461 | 27.63704 | 18487 ft | 352 kts | 9° |
| 2026-04-24 14:38 | -29.11058 | 27.64323 | 19237 ft | 357 kts | 9° |
| 2026-04-24 14:39 | -29.08614 | 27.64952 | 20029 ft | 361 kts | 9° |
| 2026-04-24 14:39 | -29.06144 | 27.65581 | 20811 ft | 365 kts | 8° |
| 2026-04-24 14:39 | -29.03652 | 27.66213 | 21567 ft | 370 kts | 8° |
| 2026-04-24 14:39 | -29.01983 | 27.66637 | 22057 ft | 373 kts | 8° |
| 2026-04-24 14:40 | -28.98595 | 27.67496 | 22974 ft | 379 kts | 8° |
| 2026-04-24 14:40 | -28.96000 | 27.68151 | 23651 ft | 383 kts | 8° |
| 2026-04-24 14:40 | -28.93382 | 27.68816 | 24241 ft | 387 kts | 8° |
| 2026-04-24 14:40 | -28.91607 | 27.69268 | 24636 ft | 388 kts | 8° |
| 2026-04-24 14:41 | -28.88961 | 27.69940 | 25224 ft | 390 kts | 8° |
| 2026-04-24 14:41 | -28.86304 | 27.70615 | 25782 ft | 392 kts | 8° |
| 2026-04-24 14:41 | -28.83614 | 27.71293 | 26124 ft | 402 kts | 8° |
| 2026-04-24 14:41 | -28.80877 | 27.71981 | 26474 ft | 409 kts | 8° |
| 2026-04-24 14:42 | -28.78038 | 27.72696 | 26362 ft | 428 kts | 8° |
| 2026-04-24 14:42 | -28.75101 | 27.73437 | 26268 ft | 432 kts | 8° |
| 2026-04-24 14:42 | -28.72144 | 27.74189 | 26263 ft | 437 kts | 8° |
| 2026-04-24 14:42 | -28.69179 | 27.74940 | 26275 ft | 437 kts | 8° |
| 2026-04-24 14:43 | -28.66205 | 27.75694 | 26266 ft | 437 kts | 8° |
| 2026-04-24 14:43 | -28.63242 | 27.76440 | 26269 ft | 437 kts | 8° |
| 2026-04-24 14:43 | -28.60276 | 27.77186 | 26272 ft | 436 kts | 8° |
| 2026-04-24 14:43 | -28.57314 | 27.77930 | 26281 ft | 436 kts | 8° |
| 2026-04-24 14:44 | -28.54344 | 27.78677 | 26275 ft | 436 kts | 8° |
| 2026-04-24 14:44 | -28.51381 | 27.79421 | 26276 ft | 436 kts | 8° |
| 2026-04-24 14:44 | -28.48419 | 27.80165 | 26281 ft | 436 kts | 8° |
| 2026-04-24 14:44 | -28.45457 | 27.80910 | 26280 ft | 436 kts | 8° |
| 2026-04-24 14:45 | -28.42491 | 27.81655 | 26275 ft | 436 kts | 8° |
| 2026-04-24 14:45 | -28.39526 | 27.82398 | 26279 ft | 436 kts | 8° |
| 2026-04-24 14:45 | -28.36556 | 27.83142 | 26282 ft | 436 kts | 8° |
| 2026-04-24 14:45 | -28.33629 | 27.83874 | 26280 ft | 436 kts | 8° |
| 2026-04-24 14:46 | -28.30673 | 27.84615 | 26268 ft | 436 kts | 8° |
| 2026-04-24 14:46 | -28.27711 | 27.85356 | 26282 ft | 436 kts | 8° |
| 2026-04-24 14:46 | -28.24755 | 27.86096 | 26279 ft | 435 kts | 8° |
| 2026-04-24 14:46 | -28.21791 | 27.86836 | 26276 ft | 435 kts | 8° |
| 2026-04-24 14:47 | -28.18829 | 27.87576 | 26279 ft | 436 kts | 8° |
| 2026-04-24 14:47 | -28.15869 | 27.88314 | 26282 ft | 436 kts | 8° |
| 2026-04-24 14:47 | -28.12904 | 27.89054 | 26277 ft | 436 kts | 8° |
| 2026-04-24 14:47 | -28.09954 | 27.89791 | 26276 ft | 436 kts | 8° |
| 2026-04-24 14:48 | -28.06995 | 27.90528 | 26276 ft | 436 kts | 8° |
| 2026-04-24 14:48 | -28.04020 | 27.91269 | 26278 ft | 436 kts | 8° |
| 2026-04-24 14:48 | -28.01057 | 27.92006 | 26280 ft | 436 kts | 8° |
| 2026-04-24 14:48 | -27.98102 | 27.92742 | 26278 ft | 436 kts | 8° |
| 2026-04-24 14:49 | -27.95131 | 27.93481 | 26276 ft | 436 kts | 8° |
| 2026-04-24 14:49 | -27.92162 | 27.94220 | 26276 ft | 436 kts | 8° |
| 2026-04-24 14:49 | -27.89198 | 27.94953 | 26284 ft | 437 kts | 8° |
| 2026-04-24 14:49 | -27.86226 | 27.95690 | 26283 ft | 437 kts | 8° |
| 2026-04-24 14:50 | -27.83249 | 27.96430 | 26283 ft | 437 kts | 8° |
| 2026-04-24 14:50 | -27.80280 | 27.97167 | 26283 ft | 437 kts | 8° |
| 2026-04-24 14:50 | -27.77342 | 27.97896 | 26284 ft | 438 kts | 8° |
| 2026-04-24 14:50 | -27.74368 | 27.98632 | 26282 ft | 438 kts | 8° |
| 2026-04-24 14:51 | -27.71385 | 27.99370 | 26283 ft | 438 kts | 8° |
| 2026-04-24 14:51 | -27.68405 | 28.00108 | 26286 ft | 439 kts | 8° |
| 2026-04-24 14:51 | -27.65419 | 28.00847 | 26288 ft | 439 kts | 8° |
| 2026-04-24 14:51 | -27.62438 | 28.01584 | 26294 ft | 439 kts | 8° |
| 2026-04-24 14:52 | -27.59447 | 28.02323 | 26285 ft | 439 kts | 9° |
| 2026-04-24 14:52 | -27.56458 | 28.03061 | 26286 ft | 440 kts | 9° |
| 2026-04-24 14:52 | -27.53474 | 28.03796 | 26293 ft | 440 kts | 9° |
| 2026-04-24 14:52 | -27.50478 | 28.04515 | 26292 ft | 438 kts | 6° |
| 2026-04-24 14:53 | -27.47545 | 28.04510 | 26312 ft | 405 kts | 346° |
| 2026-04-24 14:53 | -27.44999 | 28.03493 | 26296 ft | 376 kts | 332° |
| 2026-04-24 14:53 | -27.42788 | 28.02172 | 26249 ft | 354 kts | 327° |
| 2026-04-24 14:53 | -27.40714 | 28.00756 | 26240 ft | 338 kts | 326° |
| 2026-04-24 14:54 | -27.38686 | 27.99436 | 26337 ft | 350 kts | 328° |
| 2026-04-24 14:54 | -27.36507 | 27.98139 | 26348 ft | 355 kts | 330° |
| 2026-04-24 14:54 | -27.34291 | 27.96898 | 26264 ft | 357 kts | 331° |
| 2026-04-24 14:54 | -27.32049 | 27.95653 | 26290 ft | 354 kts | 330° |
| 2026-04-24 14:55 | -27.30586 | 27.94829 | 26291 ft | 354 kts | 330° |
| 2026-04-24 14:55 | -27.27674 | 27.93150 | 26286 ft | 355 kts | 330° |
| 2026-04-24 14:55 | -27.25476 | 27.91867 | 26282 ft | 356 kts | 330° |
| 2026-04-24 14:55 | -27.23276 | 27.90587 | 26291 ft | 356 kts | 330° |
| 2026-04-24 14:56 | -27.21071 | 27.89311 | 26286 ft | 356 kts | 330° |
| 2026-04-24 14:56 | -27.18854 | 27.88035 | 26285 ft | 356 kts | 330° |
| 2026-04-24 14:56 | -27.16651 | 27.86768 | 26281 ft | 356 kts | 330° |
| 2026-04-24 14:56 | -27.14437 | 27.85494 | 26281 ft | 357 kts | 330° |
| 2026-04-24 14:57 | -27.12221 | 27.84218 | 26282 ft | 357 kts | 330° |
| 2026-04-24 14:57 | -27.10038 | 27.82961 | 26291 ft | 358 kts | 330° |
| 2026-04-24 14:57 | -27.07823 | 27.81686 | 26292 ft | 358 kts | 330° |
| 2026-04-24 14:57 | -27.05611 | 27.80414 | 26289 ft | 358 kts | 330° |
| 2026-04-24 14:58 | -27.03389 | 27.79137 | 26288 ft | 358 kts | 330° |
| 2026-04-24 14:58 | -27.01168 | 27.77861 | 26292 ft | 359 kts | 330° |
| 2026-04-24 14:58 | -26.98945 | 27.76584 | 26283 ft | 359 kts | 330° |
| 2026-04-24 14:58 | -26.96655 | 27.75348 | 25419 ft | 373 kts | 336° |
| 2026-04-24 14:59 | -26.94078 | 27.74672 | 24229 ft | 392 kts | 352° |
| 2026-04-24 14:59 | -26.91306 | 27.74955 | 22747 ft | 414 kts | 13° |
| 2026-04-24 14:59 | -26.88711 | 27.76406 | 22142 ft | 411 kts | 28° |
| 2026-04-24 14:59 | -26.86333 | 27.78110 | 21601 ft | 400 kts | 30° |
| 2026-04-24 15:00 | -26.84032 | 27.79771 | 21082 ft | 390 kts | 29° |
| 2026-04-24 15:00 | -26.81736 | 27.81323 | 20602 ft | 380 kts | 27° |
| 2026-04-24 15:00 | -26.79453 | 27.82749 | 20060 ft | 373 kts | 25° |
| 2026-04-24 15:00 | -26.77184 | 27.84107 | 19609 ft | 365 kts | 24° |
| 2026-04-24 15:01 | -26.74952 | 27.85428 | 19091 ft | 361 kts | 24° |
| 2026-04-24 15:01 | -26.72757 | 27.86725 | 18632 ft | 355 kts | 24° |
| 2026-04-24 15:01 | -26.70608 | 27.87987 | 18146 ft | 348 kts | 24° |
| 2026-04-24 15:01 | -26.68480 | 27.89223 | 17681 ft | 342 kts | 24° |
| 2026-04-24 15:02 | -26.66377 | 27.90423 | 17261 ft | 334 kts | 23° |
| 2026-04-24 15:02 | -26.64328 | 27.91611 | 16773 ft | 332 kts | 29° |
| 2026-04-24 15:02 | -26.62484 | 27.93123 | 16378 ft | 327 kts | 34° |
| 2026-04-24 15:02 | -26.60711 | 27.94699 | 15911 ft | 324 kts | 36° |
| 2026-04-24 15:03 | -26.58993 | 27.96303 | 15499 ft | 319 kts | 37° |
| 2026-04-24 15:03 | -26.57302 | 27.97896 | 15084 ft | 316 kts | 37° |
| 2026-04-24 15:03 | -26.55625 | 27.99460 | 14666 ft | 315 kts | 37° |
| 2026-04-24 15:03 | -26.53934 | 28.01015 | 14275 ft | 312 kts | 37° |
| 2026-04-24 15:04 | -26.52251 | 28.02551 | 13809 ft | 311 kts | 37° |
| 2026-04-24 15:04 | -26.50591 | 28.04061 | 13451 ft | 307 kts | 37° |
| 2026-04-24 15:04 | -26.48933 | 28.05571 | 13021 ft | 306 kts | 37° |
| 2026-04-24 15:04 | -26.47286 | 28.07073 | 12619 ft | 306 kts | 37° |
| 2026-04-24 15:05 | -26.45644 | 28.08570 | 12218 ft | 303 kts | 37° |
| 2026-04-24 15:05 | -26.44258 | 28.09836 | 11869 ft | 302 kts | 37° |
| 2026-04-24 15:05 | -26.42610 | 28.11340 | 11476 ft | 298 kts | 37° |
| 2026-04-24 15:05 | -26.41014 | 28.12796 | 11060 ft | 297 kts | 36° |
| 2026-04-24 15:06 | -26.39420 | 28.14246 | 10665 ft | 294 kts | 36° |
| 2026-04-24 15:06 | -26.37838 | 28.15684 | 10306 ft | 292 kts | 36° |
| 2026-04-24 15:06 | -26.36265 | 28.17112 | 9898 ft | 290 kts | 37° |
| 2026-04-24 15:06 | -26.34709 | 28.18527 | 9537 ft | 286 kts | 36° |
| 2026-04-24 15:07 | -26.33022 | 28.19629 | 9176 ft | 281 kts | 19° |
| 2026-04-24 15:07 | -26.31176 | 28.20340 | 8777 ft | 281 kts | 15° |
| 2026-04-24 15:07 | -26.29303 | 28.20936 | 8396 ft | 278 kts | 13° |
| 2026-04-24 15:07 | -26.27508 | 28.21455 | 8015 ft | 275 kts | 12° |
| 2026-04-24 15:08 | -26.25671 | 28.21977 | 7663 ft | 271 kts | 13° |
| 2026-04-24 15:08 | -26.23856 | 28.22515 | 7289 ft | 268 kts | 14° |
| 2026-04-24 15:08 | -26.22097 | 28.23062 | 6800 ft | 268 kts | 14° |
| 2026-04-24 15:08 | -26.20266 | 28.23639 | 6209 ft | 270 kts | 15° |
| 2026-04-24 15:09 | -26.18542 | 28.24180 | 5902 ft | 248 kts | 15° |
| 2026-04-24 15:09 | -26.16914 | 28.24679 | 6117 ft | 256 kts | 15° |
| 2026-04-24 15:09 | -26.15035 | 28.25252 | 6389 ft | 285 kts | 14° |
| 2026-04-24 15:09 | -26.13246 | 28.25807 | 6595 ft | 251 kts | 15° |
| 2026-04-24 15:10 | -26.11617 | 28.26311 | 7028 ft | 238 kts | 14° |
| 2026-04-24 15:10 | -26.10022 | 28.26810 | 7033 ft | 232 kts | 14° |
| 2026-04-24 15:10 | -26.08577 | 28.27241 | 7334 ft | 191 kts | 13° |
| 2026-04-24 15:10 | -26.07399 | 28.27593 | 8092 ft | 172 kts | 13° |
| 2026-04-24 15:11 | -26.06118 | 28.27996 | 7869 ft | 202 kts | 14° |
| 2026-04-24 15:11 | -26.04789 | 28.28418 | 7460 ft | 204 kts | 13° |
| 2026-04-24 15:11 | -26.03464 | 28.28793 | 7514 ft | 183 kts | 12° |
| 2026-04-24 15:11 | -26.02263 | 28.29139 | 7755 ft | 181 kts | 24° |
| 2026-04-24 15:12 | -26.01342 | 28.30177 | 7875 ft | 202 kts | 62° |
| 2026-04-24 15:12 | -26.02068 | 28.33230 | 9095 ft | 209 kts | 136° |
| 2026-04-24 15:12 | -26.03362 | 28.34107 | 9526 ft | 232 kts | 163° |
| 2026-04-24 15:13 | -26.05002 | 28.34272 | 9766 ft | 243 kts | 193° |
| 2026-04-24 15:13 | -26.06572 | 28.33557 | 9860 ft | 251 kts | 201° |
| 2026-04-24 15:13 | -26.08330 | 28.33182 | 10277 ft | 272 kts | 192° |
| 2026-04-24 15:13 | -26.10235 | 28.32748 | 9640 ft | 285 kts | 195° |
| 2026-04-24 15:14 | -26.12126 | 28.32285 | 9563 ft | 266 kts | 195° |
| 2026-04-24 15:14 | -26.13987 | 28.31832 | 9456 ft | 281 kts | 195° |
| 2026-04-24 15:14 | -26.15855 | 28.31383 | 9761 ft | 279 kts | 195° |
| 2026-04-24 15:14 | -26.17769 | 28.30920 | 9670 ft | 282 kts | 195° |
| 2026-04-24 15:15 | -26.19680 | 28.30451 | 9277 ft | 278 kts | 195° |
| 2026-04-24 15:15 | -26.20109 | 28.30336 | 9243 ft | 275 kts | 197° |
| 2026-04-24 15:15 | -26.21121 | 28.30042 | 9005 ft | 279 kts | 198° |
| 2026-04-24 15:15 | -26.22926 | 28.29402 | 9372 ft | 251 kts | 201° |
| 2026-04-24 15:16 | -26.24502 | 28.28808 | 9625 ft | 239 kts | 202° |
| 2026-04-24 15:16 | -26.26089 | 28.28231 | 9741 ft | 233 kts | 200° |
| 2026-04-24 15:16 | -26.27573 | 28.27730 | 10002 ft | 220 kts | 201° |
| 2026-04-24 15:16 | -26.29027 | 28.27197 | 10050 ft | 218 kts | 202° |
| 2026-04-24 15:17 | -26.30499 | 28.26612 | 10349 ft | 236 kts | 203° |
| 2026-04-24 15:17 | -26.31924 | 28.26050 | 10966 ft | 240 kts | 203° |
| 2026-04-24 15:17 | -26.33586 | 28.25352 | 11014 ft | 272 kts | 203° |
| 2026-04-24 15:17 | -26.35320 | 28.24708 | 11038 ft | 247 kts | 203° |
| 2026-04-24 15:18 | -26.36640 | 28.23669 | 10620 ft | 231 kts | 242° |
| 2026-04-24 15:18 | -26.37461 | 28.22099 | 9832 ft | 247 kts | 233° |
| 2026-04-24 15:18 | -26.38802 | 28.20881 | 10844 ft | 235 kts | 211° |
| 2026-04-24 15:18 | -26.40257 | 28.20132 | 11976 ft | 237 kts | 207° |
| 2026-04-24 15:19 | -26.41821 | 28.19380 | 12286 ft | 245 kts | 206° |
| 2026-04-24 15:19 | -26.43341 | 28.18640 | 12186 ft | 225 kts | 213° |
| 2026-04-24 15:19 | -26.44403 | 28.17431 | 11630 ft | 228 kts | 249° |
| 2026-04-24 15:19 | -26.44445 | 28.15702 | 11485 ft | 219 kts | 292° |
| 2026-04-24 15:20 | -26.43498 | 28.14454 | 11659 ft | 217 kts | 328° |
| 2026-04-24 15:20 | -26.41960 | 28.14069 | 11256 ft | 247 kts | 0° |
| 2026-04-24 15:20 | -26.40306 | 28.14571 | 10848 ft | 244 kts | 25° |
| 2026-04-24 15:20 | -26.39043 | 28.15486 | 11405 ft | 194 kts | 31° |
| 2026-04-24 15:21 | -26.37840 | 28.16454 | 11126 ft | 222 kts | 32° |
| 2026-04-24 15:21 | -26.36692 | 28.17434 | 11412 ft | 208 kts | 34° |
| 2026-04-24 15:21 | -26.35455 | 28.18560 | 10730 ft | 245 kts | 37° |
| 2026-04-24 15:21 | -26.34130 | 28.19752 | 10452 ft | 249 kts | 31° |
| 2026-04-24 15:22 | -26.32555 | 28.20643 | 9884 ft | 257 kts | 15° |
| 2026-04-24 15:22 | -26.30851 | 28.21086 | 9009 ft | 249 kts | 7° |
| 2026-04-24 15:22 | -26.29177 | 28.21378 | 8323 ft | 230 kts | 6° |
| 2026-04-24 15:23 | -26.26332 | 28.21971 | 7527 ft | 189 kts | 8° |
| 2026-04-24 15:23 | -26.23925 | 28.22593 | 6960 ft | 170 kts | 14° |
| 2026-04-24 15:23 | -26.22861 | 28.22954 | 6958 ft | 145 kts | 14° |
| 2026-04-24 15:24 | -26.19954 | 28.23802 | 6578 ft | 155 kts | 12° |
| 2026-04-24 15:25 | -26.18215 | 28.24275 | 6141 ft | 153 kts | 14° |
| 2026-04-24 15:25 | -26.15960 | 28.24969 | 5518 ft | 124 kts | 15° |
| 2026-04-24 15:26 | -26.14553 | 28.25283 | 5507 ft | 27 kts | 330° |
| 2026-04-24 15:27 | -26.14335 | 28.25061 | 5526 ft | 3 kts | 315° |
| 2026-04-24 15:27 | -26.14216 | 28.24930 | 5530 ft | 10 kts | 315° |
| 2026-04-24 15:28 | -26.13935 | 28.24623 | 5530 ft | 21 kts | 315° |
| 2026-04-24 15:29 | -26.13778 | 28.24456 | 5536 ft | 13 kts | 315° |
| 2026-04-24 15:30 | -26.13477 | 28.24130 | 5542 ft | 29 kts | 316° |
| 2026-04-24 15:31 | -26.13228 | 28.23672 | 5544 ft | 18 kts | 198° |
| 2026-04-24 15:32 | -26.13785 | 28.23427 | 5550 ft | 14 kts | 270° |
| 2026-04-24 15:33 | -26.13634 | 28.23365 | 5546 ft | 1 kts | 51° |
| 2026-04-24 15:33 | -26.13605 | 28.23424 | 5560 ft | 0 kts | 95° |